createdAt,value
2019-04-06T00:02:36.025Z,30.10
2019-04-06T00:07:38.390Z,30.83
2019-04-06T00:12:40.744Z,30.40
2019-04-06T00:17:43.089Z,31.50
2019-04-06T00:22:45.364Z,29.60
2019-04-06T00:27:47.734Z,31.93
2019-04-06T00:32:57.538Z,33.03
2019-04-06T00:38:00.179Z,31.62
2019-04-06T00:43:02.462Z,31.93
2019-04-06T00:48:04.754Z,32.50
2019-04-06T00:53:07.070Z,30.60
2019-04-06T00:58:09.388Z,28.97
2019-04-06T01:03:11.744Z,31.20
2019-04-06T01:08:14.052Z,34.98
2019-04-06T01:13:16.420Z,28.10
2019-04-06T01:18:18.784Z,30.35
2019-04-06T01:23:21.054Z,31.10
2019-04-06T01:28:23.337Z,31.30
2019-04-06T01:33:25.702Z,35.07
2019-04-06T01:38:27.987Z,27.87
2019-04-06T01:43:30.295Z,26.43
2019-04-06T01:48:32.547Z,28.60
2019-04-06T01:53:34.839Z,29.30
2019-04-06T01:58:37.196Z,30.33
2019-04-06T02:03:39.512Z,26.73
2019-04-06T02:08:41.848Z,30.03
2019-04-06T02:13:44.427Z,33.03
2019-04-06T02:18:46.714Z,31.70
2019-04-06T02:23:49.039Z,29.87
2019-04-06T02:28:51.315Z,28.98
2019-04-06T02:33:55.231Z,30.07
2019-04-06T02:39:08.490Z,31.07
2019-04-06T02:44:10.789Z,30.23
2019-04-06T02:49:13.109Z,26.03
2019-04-06T02:54:15.404Z,26.37
2019-04-06T02:59:17.886Z,27.93
2019-04-06T03:04:20.274Z,24.40
2019-04-06T03:09:22.558Z,28.10
2019-04-06T03:14:25.093Z,24.43
2019-04-06T03:19:27.476Z,25.70
2019-04-06T03:24:29.746Z,29.77
2019-04-06T03:29:32.000Z,25.97
2019-04-06T03:34:34.344Z,25.13
2019-04-06T03:39:36.596Z,27.17
2019-04-06T03:44:38.883Z,25.57
2019-04-06T03:49:41.173Z,26.33
2019-04-06T03:54:43.445Z,25.57
2019-04-06T03:59:45.743Z,30.03
2019-04-06T04:04:48.033Z,25.87
2019-04-06T04:09:50.302Z,27.93
2019-04-06T04:14:52.763Z,29.18
2019-04-06T04:19:55.059Z,25.50
2019-04-06T04:24:57.390Z,27.57
2019-04-06T04:29:59.679Z,33.93
2019-04-06T04:35:02.065Z,32.87
2019-04-06T04:40:05.516Z,32.50
2019-04-06T04:45:08.070Z,34.80
2019-04-06T04:50:10.613Z,33.23
2019-04-06T04:55:12.952Z,27.90
2019-04-06T05:00:15.737Z,27.10
2019-04-06T05:05:18.078Z,31.00
2019-04-06T05:10:20.688Z,29.43
2019-04-06T05:15:41.714Z,26.57
2019-04-06T05:20:43.988Z,25.43
2019-04-06T05:25:46.290Z,27.20
2019-04-06T05:30:48.577Z,25.27
2019-04-06T05:35:50.895Z,24.03
2019-04-06T05:40:53.233Z,27.70
2019-04-06T05:45:55.513Z,30.10
2019-04-06T05:50:58.006Z,25.67
2019-04-06T05:56:00.458Z,24.40
2019-04-06T06:01:04.085Z,23.47
2019-04-06T06:06:06.854Z,22.90
2019-04-06T06:11:09.200Z,26.55
2019-04-06T06:16:12.229Z,24.63
2019-04-06T06:21:14.722Z,26.60
2019-04-06T06:26:17.015Z,27.60
2019-04-06T06:31:19.324Z,25.13
2019-04-06T06:36:21.629Z,25.27
2019-04-06T06:41:23.867Z,24.27
2019-04-06T06:46:26.179Z,27.27
2019-04-06T06:51:28.661Z,24.87
2019-04-06T06:56:31.151Z,29.82
2019-04-06T07:01:33.543Z,29.70
2019-04-06T07:06:35.966Z,25.77
2019-04-06T07:11:38.318Z,26.37
2019-04-06T07:16:40.614Z,22.70
2019-04-06T07:21:42.959Z,18.70
2019-04-06T07:26:45.252Z,26.75
2019-04-06T07:31:47.538Z,19.80
2019-04-06T07:36:49.932Z,18.17
2019-04-06T07:41:52.222Z,18.20
2019-04-06T07:46:54.577Z,19.17
2019-04-06T07:51:56.965Z,18.05
2019-04-06T07:56:59.330Z,18.32
2019-04-06T08:02:01.899Z,19.67
2019-04-06T08:07:04.244Z,23.25
2019-04-06T08:12:06.708Z,22.00
2019-04-06T08:17:09.109Z,22.20
2019-04-06T08:22:11.492Z,29.07
2019-04-06T08:27:13.878Z,26.50
2019-04-06T08:32:16.578Z,30.80
2019-04-06T08:37:18.865Z,29.83
2019-04-06T08:42:21.239Z,28.17
2019-04-06T08:47:24.533Z,30.08
2019-04-06T08:52:26.811Z,26.52
2019-04-06T08:57:29.296Z,29.67
2019-04-06T09:02:31.861Z,28.07
2019-04-06T09:07:34.193Z,37.78
2019-04-06T09:12:37.092Z,28.50
2019-04-06T09:17:39.499Z,30.48
2019-04-06T09:22:42.012Z,32.75
2019-04-06T09:27:44.648Z,29.20
2019-04-06T09:32:47.027Z,30.52
2019-04-06T09:37:49.394Z,31.12
2019-04-06T09:42:51.752Z,32.40
2019-04-06T09:47:55.735Z,34.83
2019-04-06T09:53:16.487Z,32.98
2019-04-06T09:58:37.207Z,36.38
2019-04-06T10:03:41.214Z,36.30
2019-04-06T10:09:01.594Z,40.88
2019-04-06T10:14:08.115Z,37.78
2019-04-06T10:19:28.423Z,36.28
2019-04-06T10:24:38.661Z,40.03
2019-04-06T10:29:50.159Z,37.45
2019-04-06T10:34:56.694Z,37.10
2019-04-06T10:40:00.707Z,36.40
2019-04-06T10:45:17.767Z,42.00
2019-04-06T10:50:38.464Z,38.33
2019-04-06T10:55:58.754Z,42.00
2019-04-06T11:01:19.454Z,38.48
2019-04-06T11:06:35.434Z,39.92
2019-04-06T11:11:45.687Z,40.73
2019-04-06T11:16:58.740Z,42.03
2019-04-06T11:22:08.715Z,43.30
2019-04-06T11:27:29.337Z,41.85
2019-04-06T11:32:50.054Z,40.35
2019-04-06T11:37:54.347Z,41.20
2019-04-06T11:43:05.093Z,37.58
2019-04-06T11:48:12.264Z,29.98
2019-04-06T11:53:18.969Z,25.30
2019-04-06T11:58:31.907Z,32.85
2019-04-06T12:03:35.859Z,27.35
2019-04-06T12:08:58.512Z,26.35
2019-04-06T12:14:03.134Z,24.85
2019-04-06T12:19:09.860Z,22.27
2019-04-06T12:24:16.773Z,24.77
2019-04-06T12:29:21.174Z,18.05
2019-04-06T12:34:41.797Z,19.05
2019-04-06T12:40:02.513Z,30.08
2019-04-06T12:45:10.333Z,33.00
2019-04-06T12:50:14.324Z,33.48
2019-04-06T12:55:34.666Z,30.60
2019-04-06T13:00:52.635Z,28.97
2019-04-06T13:06:10.620Z,33.90
2019-04-06T13:11:14.839Z,30.92
2019-04-06T13:16:21.728Z,27.35
2019-04-06T13:26:35.153Z,26.07
2019-04-06T13:31:41.991Z,30.30
2019-04-06T13:36:49.079Z,26.10
2019-04-06T13:42:02.322Z,26.20
2019-04-06T13:47:22.999Z,26.13
2019-04-06T13:52:27.550Z,27.58
2019-04-06T13:57:43.778Z,26.35
2019-04-06T14:02:51.276Z,23.38
2019-04-06T14:07:58.118Z,25.62
2019-04-06T14:13:05.088Z,26.25
2019-04-06T14:18:21.287Z,24.65
2019-04-06T14:23:25.208Z,22.17
2019-04-06T14:28:29.143Z,23.55
2019-04-06T14:33:42.224Z,20.32
2019-04-06T14:38:46.150Z,21.77
2019-04-06T14:44:08.215Z,21.50
2019-04-06T14:49:27.475Z,20.27
2019-04-06T14:54:20.622Z,20.92
2019-04-06T14:59:30.214Z,27.20
2019-04-06T15:04:52.680Z,24.90
2019-04-06T15:10:02.336Z,23.67
2019-04-06T15:15:07.662Z,22.17
2019-04-06T15:20:14.972Z,24.37
2019-04-06T15:25:19.073Z,25.05
2019-04-06T15:30:38.274Z,23.67
2019-04-06T15:36:00.504Z,26.70
2019-04-06T15:41:19.512Z,24.60
2019-04-06T15:46:41.973Z,27.02
2019-04-06T15:52:11.037Z,28.20
2019-04-06T15:57:17.069Z,23.52
2019-04-06T16:02:23.637Z,26.75
2019-04-06T16:07:33.381Z,29.37
2019-04-06T16:12:35.946Z,28.57
2019-04-06T16:17:39.899Z,28.00
2019-04-06T16:22:46.677Z,25.75
2019-04-06T16:27:50.699Z,27.10
2019-04-06T16:33:08.796Z,32.42
2019-04-06T16:38:24.725Z,32.48
2019-04-06T16:43:37.813Z,26.70
2019-04-06T16:48:44.613Z,30.92
2019-04-06T16:53:57.927Z,25.32
2019-04-06T16:59:02.291Z,27.52
2019-04-06T17:04:09.269Z,25.37
2019-04-06T17:14:36.064Z,25.90
2019-04-06T17:19:46.323Z,26.17
2019-04-06T17:25:02.925Z,28.47
2019-04-06T17:30:24.774Z,27.90
2019-04-06T17:35:34.671Z,31.27
2019-04-06T17:40:55.113Z,26.12
2019-04-06T17:46:02.338Z,28.52
2019-04-06T17:51:24.484Z,28.85
2019-04-06T17:56:28.838Z,28.65
2019-04-06T18:01:53.354Z,31.87
2019-04-06T18:07:09.409Z,38.38
2019-04-06T18:12:13.684Z,27.13
2019-04-06T18:17:16.091Z,27.15
2019-04-06T18:22:18.438Z,35.73
2019-04-06T18:27:20.833Z,50.73
2019-04-06T18:32:40.522Z,34.58
2019-04-06T18:37:44.721Z,22.00
2019-04-06T18:42:47.424Z,20.55
2019-04-06T18:47:50.223Z,40.70
2019-04-06T18:52:53.145Z,47.53
2019-04-06T18:57:55.942Z,41.90
2019-04-06T19:03:10.594Z,34.52
2019-04-06T19:08:04.536Z,31.60
2019-04-06T19:13:07.193Z,26.97
2019-04-06T19:18:10.040Z,22.73
2019-04-06T19:23:12.437Z,29.10
2019-04-06T19:28:14.939Z,21.83
2019-04-06T19:33:25.003Z,32.00
2019-04-06T19:38:22.383Z,35.80
2019-04-06T19:43:32.475Z,31.17
2019-04-06T19:48:34.966Z,31.30
2019-04-06T19:53:37.872Z,32.37
2019-04-06T19:58:40.327Z,32.50
2019-04-06T20:03:42.773Z,26.67
2019-04-06T20:08:45.139Z,33.83
2019-04-06T20:13:47.964Z,49.63
2019-04-06T20:18:50.386Z,45.53
2019-04-06T20:23:54.000Z,42.20
2019-04-06T20:28:56.572Z,30.33
2019-04-06T20:33:59.057Z,27.60
2019-04-06T20:39:01.960Z,30.23
2019-04-06T20:44:04.543Z,31.67
2019-04-06T20:49:07.628Z,32.27
2019-04-06T20:54:10.582Z,31.03
2019-04-06T20:59:13.152Z,29.00
2019-04-06T21:04:15.631Z,28.17
2019-04-06T21:09:18.156Z,32.47
2019-04-06T21:14:20.546Z,29.17
2019-04-06T21:19:23.068Z,28.97
2019-04-06T21:24:26.170Z,30.43
2019-04-06T21:29:28.929Z,32.27
2019-04-06T21:34:31.277Z,32.73
2019-04-06T21:39:33.621Z,34.20
2019-04-06T21:44:36.865Z,29.80
2019-04-06T21:49:39.238Z,32.67
2019-04-06T21:54:42.037Z,31.17
2019-04-06T21:59:44.915Z,27.10
2019-04-06T22:04:47.346Z,31.20
2019-04-06T22:09:50.424Z,28.33
2019-04-06T22:14:52.973Z,30.07
2019-04-06T22:19:55.255Z,29.03
2019-04-06T22:24:57.610Z,33.33
2019-04-06T22:30:00.285Z,29.13
2019-04-06T22:35:03.401Z,29.37
2019-04-06T22:40:06.020Z,24.93
2019-04-06T22:45:10.676Z,27.10
2019-04-06T22:50:13.155Z,28.07
2019-04-06T22:55:15.470Z,30.17
2019-04-06T23:00:19.798Z,31.40
2019-04-06T23:05:23.728Z,33.57
2019-04-06T23:10:26.009Z,31.73
2019-04-06T23:15:28.932Z,29.67
2019-04-06T23:20:31.387Z,30.27
2019-04-06T23:25:34.933Z,31.03
2019-04-06T23:30:37.573Z,28.37
2019-04-06T23:35:40.029Z,30.33
2019-04-06T23:40:42.336Z,29.03
2019-04-06T23:45:44.777Z,28.60
2019-04-06T23:50:47.476Z,27.43
2019-04-06T23:55:49.928Z,30.33
